Time;durP1;ratioP1;P1;durP2;ratioP2;P2;SDS_P1;SDS_P2;PMS_P1;PMS_P2;Temp;Humidity;BMP_temperature;BMP_pressure;BME280_temperature;BME280_humidity;BME280_pressure;Samples;Min_cycle;Max_cycle;Signal;HPM_P1;HPM_P2
2022/02/15 00:00:18;;;;;;;;;;;20.20;51.90;;;;;;5063035;28;19912;-60
2022/02/15 00:02:44;;;;;;;;;;;20.20;51.90;;;;;;5064838;28;19995;-61
2022/02/15 00:05:09;;;;;;;;;;;20.20;51.80;;;;;;5063941;28;19957;-60
2022/02/15 00:07:35;;;;;;;;;;;20.20;51.80;;;;;;5063982;28;19908;-60
2022/02/15 00:10:01;;;;;;;;;;;20.30;51.80;;;;;;5063606;28;19916;-59
2022/02/15 00:12:26;;;;;;;;;;;20.20;51.70;;;;;;5064158;28;20164;-61
2022/02/15 00:14:52;;;;;;;;;;;20.20;51.70;;;;;;5063332;28;19980;-60
2022/02/15 00:17:17;;;;;;;;;;;20.20;51.70;;;;;;5064696;28;19931;-59
2022/02/15 00:19:43;;;;;;;;;;;20.20;51.60;;;;;;5063794;28;19958;-59
2022/02/15 00:22:08;;;;;;;;;;;20.20;51.60;;;;;;5064282;28;19917;-59
2022/02/15 00:24:33;;;;;;;;;;;20.20;51.60;;;;;;5064779;28;20369;-61
2022/02/15 00:26:59;;;;;;;;;;;20.20;51.60;;;;;;5063120;28;19976;-59
2022/02/15 00:29:24;;;;;;;;;;;20.20;51.50;;;;;;5062782;28;19915;-59
2022/02/15 00:31:50;;;;;;;;;;;20.20;51.50;;;;;;5063158;28;19908;-60
2022/02/15 00:34:15;;;;;;;;;;;20.20;51.50;;;;;;5064914;28;19908;-61
2022/02/15 00:36:41;;;;;;;;;;;20.20;51.50;;;;;;5062342;28;19938;-59
2022/02/15 00:39:07;;;;;;;;;;;20.20;51.40;;;;;;5063378;28;19913;-61
2022/02/15 00:41:32;;;;;;;;;;;20.20;51.40;;;;;;5064277;28;19908;-60
2022/02/15 00:43:58;;;;;;;;;;;20.20;51.40;;;;;;5063711;28;19915;-59
2022/02/15 00:46:23;;;;;;;;;;;20.20;51.30;;;;;;5063518;28;19908;-58
2022/02/15 00:48:49;;;;;;;;;;;20.20;51.40;;;;;;5063765;28;20189;-64
2022/02/15 00:51:14;;;;;;;;;;;20.20;51.30;;;;;;5063582;28;19914;-60
2022/02/15 00:53:39;;;;;;;;;;;20.20;51.30;;;;;;5064548;28;19939;-58
2022/02/15 00:56:05;;;;;;;;;;;20.20;51.40;;;;;;5063619;28;20112;-59
2022/02/15 00:58:30;;;;;;;;;;;20.20;51.30;;;;;;5063425;28;19999;-60
2022/02/15 01:00:56;;;;;;;;;;;20.20;51.30;;;;;;5063253;28;20110;-59
2022/02/15 01:03:21;;;;;;;;;;;20.20;51.40;;;;;;5063512;28;20580;-60
2022/02/15 01:05:47;;;;;;;;;;;20.10;51.30;;;;;;5063644;28;19931;-61
2022/02/15 01:08:12;;;;;;;;;;;20.10;51.30;;;;;;5063499;28;19962;-58
2022/02/15 01:10:38;;;;;;;;;;;20.10;51.30;;;;;;5062713;28;21449;-61
2022/02/15 01:13:04;;;;;;;;;;;20.10;51.30;;;;;;5062710;28;19912;-60
2022/02/15 01:15:29;;;;;;;;;;;20.10;51.30;;;;;;5062933;28;20439;-61
2022/02/15 01:17:55;;;;;;;;;;;20.10;51.30;;;;;;5064175;28;19912;-60
2022/02/15 01:20:20;;;;;;;;;;;20.10;51.30;;;;;;5065249;28;19908;-61
2022/02/15 01:22:46;;;;;;;;;;;20.10;51.30;;;;;;5068532;28;19962;-61
2022/02/15 01:25:11;;;;;;;;;;;20.10;51.20;;;;;;5067021;28;19915;-60
2022/02/15 01:27:36;;;;;;;;;;;20.10;51.20;;;;;;5067054;28;19916;-59
2022/02/15 01:30:03;;;;;;;;;;;20.20;51.20;;;;;;5066793;28;19916;-60
2022/02/15 01:32:28;;;;;;;;;;;20.20;51.20;;;;;;5048791;28;19987;-62
2022/02/15 01:34:54;;;;;;;;;;;20.20;51.20;;;;;;5066345;28;19916;-60
2022/02/15 01:37:19;;;;;;;;;;;20.20;51.20;;;;;;5066068;28;19909;-60
2022/02/15 01:39:45;;;;;;;;;;;20.20;51.20;;;;;;5065987;28;19912;-60
2022/02/15 01:42:10;;;;;;;;;;;20.10;51.10;;;;;;5066321;28;19916;-60
2022/02/15 01:44:36;;;;;;;;;;;20.10;51.20;;;;;;5066773;28;20337;-60
2022/02/15 01:47:02;;;;;;;;;;;20.10;51.10;;;;;;5066589;28;20322;-60
2022/02/15 01:49:28;;;;;;;;;;;20.20;51.20;;;;;;5066165;28;20396;-60
2022/02/15 01:51:53;;;;;;;;;;;20.10;51.10;;;;;;5066320;28;19908;-60
2022/02/15 01:54:18;;;;;;;;;;;20.10;51.10;;;;;;5067259;28;20479;-59
2022/02/15 01:56:44;;;;;;;;;;;20.10;51.10;;;;;;5045681;28;20603;-59
2022/02/15 01:59:09;;;;;;;;;;;20.10;51.10;;;;;;5060656;28;20003;-59
2022/02/15 02:01:35;;;;;;;;;;;20.10;51.10;;;;;;5064048;28;19908;-59
2022/02/15 02:04:00;;;;;;;;;;;20.10;51.10;;;;;;5046423;28;20362;-60
2022/02/15 02:06:26;;;;;;;;;;;20.10;51.10;;;;;;5046075;28;20255;-61
2022/02/15 02:08:51;;;;;;;;;;;20.10;51.10;;;;;;5046471;28;19921;-59
2022/02/15 02:11:17;;;;;;;;;;;20.10;51.10;;;;;;5046877;28;20148;-60
2022/02/15 02:13:42;;;;;;;;;;;20.10;51.10;;;;;;5045677;28;19913;-60
2022/02/15 02:16:08;;;;;;;;;;;20.10;51.10;;;;;;5046249;28;19924;-59
2022/02/15 02:18:33;;;;;;;;;;;20.10;51.10;;;;;;5046104;28;20408;-60
2022/02/15 02:21:05;;;;;;;;;;;20.10;51.10;;;;;;5045839;28;19931;-60
2022/02/15 02:23:30;;;;;;;;;;;20.10;51.10;;;;;;5046466;28;19908;-60
2022/02/15 02:25:56;;;;;;;;;;;20.10;51.10;;;;;;5045405;28;20004;-60
2022/02/15 02:28:21;;;;;;;;;;;20.10;51.10;;;;;;5046248;28;19909;-60
2022/02/15 02:30:47;;;;;;;;;;;20.00;51.00;;;;;;5060321;28;20001;-58
2022/02/15 02:33:12;;;;;;;;;;;20.10;51.10;;;;;;5046170;28;20367;-59
2022/02/15 02:35:37;;;;;;;;;;;20.00;51.10;;;;;;5034504;28;20022;-57
2022/02/15 02:38:03;;;;;;;;;;;20.00;51.10;;;;;;5063686;28;19930;-58
2022/02/15 02:40:28;;;;;;;;;;;20.00;51.10;;;;;;5044481;28;19909;-58
2022/02/15 02:42:54;;;;;;;;;;;20.00;51.10;;;;;;5057942;28;19908;-58
2022/02/15 02:45:20;;;;;;;;;;;20.00;51.10;;;;;;5045444;28;20529;-57
2022/02/15 02:47:46;;;;;;;;;;;20.00;51.20;;;;;;5053764;28;19913;-58
2022/02/15 02:50:11;;;;;;;;;;;20.00;51.10;;;;;;5044907;28;20075;-58
2022/02/15 02:52:37;;;;;;;;;;;20.00;51.10;;;;;;5044618;28;20293;-58
2022/02/15 02:55:02;;;;;;;;;;;20.00;51.10;;;;;;5063786;28;19916;-59
2022/02/15 02:57:28;;;;;;;;;;;20.00;51.10;;;;;;5052754;28;20628;-59
2022/02/15 02:59:53;;;;;;;;;;;20.00;51.10;;;;;;5056099;28;19908;-59
2022/02/15 03:02:19;;;;;;;;;;;20.00;51.10;;;;;;5049003;28;19909;-59
2022/02/15 03:04:44;;;;;;;;;;;20.00;51.20;;;;;;5045213;28;20274;-61
2022/02/15 03:07:10;;;;;;;;;;;20.00;51.10;;;;;;5050492;28;19917;-61
2022/02/15 03:09:35;;;;;;;;;;;20.00;51.10;;;;;;5044625;28;19916;-61
2022/02/15 03:12:01;;;;;;;;;;;20.00;51.10;;;;;;5044066;28;20018;-61
2022/02/15 03:14:26;;;;;;;;;;;20.00;51.10;;;;;;5044987;28;19916;-60
2022/02/15 03:16:52;;;;;;;;;;;20.00;51.10;;;;;;5044204;28;19963;-59
2022/02/15 03:19:17;;;;;;;;;;;20.00;51.10;;;;;;5044808;28;19915;-59
2022/02/15 03:21:43;;;;;;;;;;;20.00;51.20;;;;;;5045098;28;19908;-61
2022/02/15 03:24:08;;;;;;;;;;;19.90;51.10;;;;;;5044839;28;19908;-60
2022/02/15 03:26:34;;;;;;;;;;;20.00;51.10;;;;;;5043774;28;19920;-60
2022/02/15 03:28:59;;;;;;;;;;;20.00;51.10;;;;;;5006787;28;19931;-60
2022/02/15 03:31:24;;;;;;;;;;;20.00;51.00;;;;;;5027401;28;20012;-60
2022/02/15 03:33:50;;;;;;;;;;;20.00;51.10;;;;;;5052916;28;20396;-63
2022/02/15 03:36:15;;;;;;;;;;;20.00;51.00;;;;;;5059977;28;20011;-59
2022/02/15 03:38:41;;;;;;;;;;;20.00;51.00;;;;;;5060095;28;19908;-59
2022/02/15 03:43:50;;;;;;;;;;;20.00;51.00;;;;;;5044132;28;20098;-59
2022/02/15 03:46:16;;;;;;;;;;;19.90;50.90;;;;;;5045112;28;20445;-59
2022/02/15 03:48:41;;;;;;;;;;;20.00;51.00;;;;;;5044423;28;20354;-62
2022/02/15 03:51:07;;;;;;;;;;;19.90;50.90;;;;;;5044115;28;20007;-58
2022/02/15 03:53:32;;;;;;;;;;;20.00;51.00;;;;;;5044198;28;19909;-59
2022/02/15 03:55:58;;;;;;;;;;;19.90;50.90;;;;;;5044676;28;20421;-60
2022/02/15 03:58:23;;;;;;;;;;;19.90;50.90;;;;;;5043786;28;19913;-59
2022/02/15 04:00:49;;;;;;;;;;;19.90;50.90;;;;;;5044670;28;20007;-60
2022/02/15 04:03:14;;;;;;;;;;;19.90;50.90;;;;;;5049746;28;19916;-59
2022/02/15 04:05:39;;;;;;;;;;;19.90;50.90;;;;;;5041784;28;19924;-60
2022/02/15 04:08:05;;;;;;;;;;;19.90;50.90;;;;;;5043885;28;19921;-61
2022/02/15 04:10:30;;;;;;;;;;;19.90;51.00;;;;;;5054112;22;20023;-61
2022/02/15 04:12:56;;;;;;;;;;;19.90;51.00;;;;;;5044230;28;20281;-61
2022/02/15 04:15:21;;;;;;;;;;;19.90;51.00;;;;;;5044309;28;19958;-58
2022/02/15 04:17:47;;;;;;;;;;;19.90;51.10;;;;;;5023216;28;19991;-61
2022/02/15 04:20:12;;;;;;;;;;;19.90;51.00;;;;;;5025435;28;19940;-59
2022/02/15 04:22:38;;;;;;;;;;;19.90;51.00;;;;;;5048324;28;19916;-60
2022/02/15 04:25:04;;;;;;;;;;;19.90;51.10;;;;;;5058531;28;19992;-61
2022/02/15 04:27:29;;;;;;;;;;;19.80;51.00;;;;;;5035522;28;19909;-62
2022/02/15 04:29:55;;;;;;;;;;;19.80;51.00;;;;;;5033973;28;19943;-61
2022/02/15 04:32:20;;;;;;;;;;;19.80;51.00;;;;;;5048476;28;19908;-60
2022/02/15 04:34:46;;;;;;;;;;;19.90;51.00;;;;;;5029918;28;21353;-60
2022/02/15 04:37:11;;;;;;;;;;;19.90;51.00;;;;;;5031358;28;20262;-63
2022/02/15 04:39:37;;;;;;;;;;;19.90;51.00;;;;;;5062551;28;20019;-60
2022/02/15 04:42:02;;;;;;;;;;;19.80;50.90;;;;;;5036251;28;19908;-60
2022/02/15 04:44:28;;;;;;;;;;;19.80;51.00;;;;;;5049911;28;20431;-63
2022/02/15 04:46:53;;;;;;;;;;;19.90;51.00;;;;;;5051279;28;19909;-62
2022/02/15 04:49:18;;;;;;;;;;;19.80;51.00;;;;;;5052189;28;19913;-60
2022/02/15 04:51:44;;;;;;;;;;;19.90;51.00;;;;;;5033558;28;19951;-63
2022/02/15 04:54:09;;;;;;;;;;;19.80;51.00;;;;;;5062233;28;19912;-62
2022/02/15 04:56:35;;;;;;;;;;;19.90;51.00;;;;;;5048929;28;19923;-61
2022/02/15 04:59:00;;;;;;;;;;;19.90;51.00;;;;;;5053982;28;20376;-62
2022/02/15 05:01:26;;;;;;;;;;;19.90;51.00;;;;;;5035668;28;19915;-62
2022/02/15 05:03:51;;;;;;;;;;;19.90;51.00;;;;;;5043249;28;19920;-66
2022/02/15 05:06:17;;;;;;;;;;;19.90;51.00;;;;;;5043195;28;19912;-63
2022/02/15 05:08:42;;;;;;;;;;;19.80;50.90;;;;;;5051183;28;19912;-60
2022/02/15 05:11:07;;;;;;;;;;;19.90;50.90;;;;;;5042826;28;19924;-60
2022/02/15 05:13:33;;;;;;;;;;;19.90;50.90;;;;;;5052400;28;19916;-60
2022/02/15 05:15:58;;;;;;;;;;;19.80;50.90;;;;;;5062900;28;19912;-61
2022/02/15 05:18:25;;;;;;;;;;;19.80;50.90;;;;;;5051805;28;19909;-59
2022/02/15 05:20:51;;;;;;;;;;;19.90;50.90;;;;;;5043148;28;20557;-67
2022/02/15 05:23:16;;;;;;;;;;;19.80;50.90;;;;;;5043177;28;19947;-60
2022/02/15 05:25:42;;;;;;;;;;;19.80;50.90;;;;;;5043030;28;20405;-61
2022/02/15 05:28:07;;;;;;;;;;;19.90;50.90;;;;;;5050623;28;19913;-59
2022/02/15 05:30:33;;;;;;;;;;;19.90;50.90;;;;;;5051716;28;19915;-61
2022/02/15 05:32:58;;;;;;;;;;;19.90;50.90;;;;;;5059737;28;19916;-62
2022/02/15 05:35:24;;;;;;;;;;;19.80;50.80;;;;;;5047304;28;20374;-60
2022/02/15 05:37:49;;;;;;;;;;;19.80;50.80;;;;;;5051926;28;19908;-60
2022/02/15 05:40:15;;;;;;;;;;;19.80;50.80;;;;;;5043161;28;19916;-62
2022/02/15 05:42:41;;;;;;;;;;;19.80;50.80;;;;;;5016849;28;19926;-62
2022/02/15 05:45:07;;;;;;;;;;;19.80;50.80;;;;;;5047269;28;19908;-61
2022/02/15 05:47:32;;;;;;;;;;;19.90;50.90;;;;;;5042766;28;20301;-59
2022/02/15 05:52:42;;;;;;;;;;;19.80;50.70;;;;;;5041814;28;19924;-60
2022/02/15 05:55:07;;;;;;;;;;;19.80;50.70;;;;;;5051612;28;19913;-62
2022/02/15 05:57:33;;;;;;;;;;;19.80;50.80;;;;;;5053225;28;19908;-60
2022/02/15 05:59:58;;;;;;;;;;;19.80;50.70;;;;;;5057090;28;19909;-60
2022/02/15 06:02:24;;;;;;;;;;;19.80;50.70;;;;;;5042147;28;20396;-61
2022/02/15 06:04:49;;;;;;;;;;;19.80;50.70;;;;;;5043146;28;19915;-63
2022/02/15 06:07:15;;;;;;;;;;;19.80;50.70;;;;;;5044247;28;19909;-59
2022/02/15 06:09:40;;;;;;;;;;;19.80;50.70;;;;;;5051469;28;19916;-63
2022/02/15 06:12:06;;;;;;;;;;;19.80;50.80;;;;;;5047684;28;19982;-61
2022/02/15 06:14:31;;;;;;;;;;;19.80;50.70;;;;;;5046069;28;19917;-60
2022/02/15 06:16:57;;;;;;;;;;;19.80;50.70;;;;;;5028116;28;19913;-59
2022/02/15 06:19:22;;;;;;;;;;;19.90;50.70;;;;;;5040450;28;19915;-62
2022/02/15 06:21:48;;;;;;;;;;;19.80;50.70;;;;;;5048501;28;19916;-62
2022/02/15 06:24:14;;;;;;;;;;;19.80;50.70;;;;;;5052921;28;19909;-61
2022/02/15 06:26:39;;;;;;;;;;;19.80;50.70;;;;;;5046361;28;19909;-59
2022/02/15 06:29:05;;;;;;;;;;;19.80;50.70;;;;;;5040782;28;19916;-62
2022/02/15 06:31:30;;;;;;;;;;;19.80;50.80;;;;;;5048917;28;20270;-62
2022/02/15 06:33:55;;;;;;;;;;;19.80;50.90;;;;;;5058983;28;19916;-58
2022/02/15 06:36:21;;;;;;;;;;;19.80;51.60;;;;;;5041181;28;20351;-62
2022/02/15 06:38:46;;;;;;;;;;;19.80;51.00;;;;;;5053521;28;19917;-62
2022/02/15 06:41:12;;;;;;;;;;;19.80;51.10;;;;;;5028185;28;19924;-60
2022/02/15 06:43:38;;;;;;;;;;;19.80;51.20;;;;;;5047837;28;19912;-58
2022/02/15 06:46:03;;;;;;;;;;;19.80;51.30;;;;;;5056068;28;20340;-62
2022/02/15 06:48:29;;;;;;;;;;;19.80;51.50;;;;;;5051262;28;19912;-62
2022/02/15 06:50:54;;;;;;;;;;;19.80;51.60;;;;;;5047175;28;19909;-59
2022/02/15 06:53:20;;;;;;;;;;;19.80;51.80;;;;;;5065291;28;19908;-62
2022/02/15 06:55:45;;;;;;;;;;;19.80;52.00;;;;;;5060608;28;19999;-62
2022/02/15 06:58:10;;;;;;;;;;;19.80;52.00;;;;;;5028754;28;19912;-59
2022/02/15 07:00:38;;;;;;;;;;;19.80;52.10;;;;;;5045038;28;20332;-60
2022/02/15 07:03:03;;;;;;;;;;;19.80;52.20;;;;;;5048593;28;19916;-61
2022/02/15 07:05:29;;;;;;;;;;;19.80;52.20;;;;;;5043262;28;19916;-61
2022/02/15 07:07:54;;;;;;;;;;;19.80;52.10;;;;;;5049007;28;19915;-62
2022/02/15 07:10:20;;;;;;;;;;;19.80;52.10;;;;;;5056637;28;19917;-62
2022/02/15 07:12:46;;;;;;;;;;;19.80;52.00;;;;;;5045509;28;19986;-63
2022/02/15 07:15:13;;;;;;;;;;;19.80;51.90;;;;;;5044913;28;19917;-61
2022/02/15 07:17:39;;;;;;;;;;;19.80;51.80;;;;;;5054589;28;20283;-59
2022/02/15 07:20:06;;;;;;;;;;;19.80;51.80;;;;;;5045468;28;19916;-63
2022/02/15 07:22:32;;;;;;;;;;;19.80;51.80;;;;;;5035866;28;19919;-62
2022/02/15 07:24:57;;;;;;;;;;;19.80;51.70;;;;;;5044725;28;20003;-62
2022/02/15 07:27:22;;;;;;;;;;;19.80;51.60;;;;;;5044771;28;19985;-64
2022/02/15 07:29:48;;;;;;;;;;;19.80;51.60;;;;;;5045279;28;19909;-60
2022/02/15 07:32:13;;;;;;;;;;;19.70;51.50;;;;;;5039530;28;19908;-62
2022/02/15 07:34:39;;;;;;;;;;;19.70;51.40;;;;;;5044483;28;20399;-63
2022/02/15 07:37:04;;;;;;;;;;;19.70;51.40;;;;;;5043490;28;19912;-60
2022/02/15 07:39:30;;;;;;;;;;;19.80;51.40;;;;;;5044258;28;19936;-63
2022/02/15 07:41:56;;;;;;;;;;;19.80;51.40;;;;;;5037998;28;19928;-60
2022/02/15 07:44:22;;;;;;;;;;;19.70;51.30;;;;;;5062462;28;19908;-62
2022/02/15 07:46:48;;;;;;;;;;;19.70;51.30;;;;;;5051055;28;19917;-62
2022/02/15 07:49:14;;;;;;;;;;;19.70;51.20;;;;;;5054279;28;19909;-62
2022/02/15 07:51:39;;;;;;;;;;;19.70;51.20;;;;;;5047350;28;19992;-61
2022/02/15 07:54:05;;;;;;;;;;;19.70;51.20;;;;;;5046883;28;20331;-63
2022/02/15 07:56:30;;;;;;;;;;;19.70;51.20;;;;;;5054221;28;19913;-61
2022/02/15 07:58:56;;;;;;;;;;;19.70;51.10;;;;;;5035018;28;19994;-59
2022/02/15 08:01:21;;;;;;;;;;;19.70;51.10;;;;;;5059996;28;21004;-63
2022/02/15 08:03:46;;;;;;;;;;;19.70;51.20;;;;;;5043515;28;19957;-63
2022/02/15 08:06:12;;;;;;;;;;;19.70;51.30;;;;;;5046204;28;20055;-61
2022/02/15 08:08:37;;;;;;;;;;;19.70;51.30;;;;;;5049041;28;19908;-63
2022/02/15 08:11:03;;;;;;;;;;;19.70;51.60;;;;;;5057669;28;19970;-62
2022/02/15 08:13:34;;;;;;;;;;;19.80;52.00;;;;;;5024386;28;19916;-63
2022/02/15 08:16:00;;;;;;;;;;;19.70;53.10;;;;;;5028508;28;20341;-60
2022/02/15 08:18:26;;;;;;;;;;;19.80;53.40;;;;;;5043674;28;19909;-64
2022/02/15 08:20:51;;;;;;;;;;;19.70;53.50;;;;;;5052252;28;19916;-63
2022/02/15 08:23:17;;;;;;;;;;;19.70;53.50;;;;;;5035137;28;19962;-61
2022/02/15 08:25:42;;;;;;;;;;;19.70;53.20;;;;;;5049781;28;19916;-59
2022/02/15 08:28:10;;;;;;;;;;;19.70;53.30;;;;;;5058027;28;19908;-60
2022/02/15 08:30:35;;;;;;;;;;;19.60;53.60;;;;;;5059425;28;20258;-62
2022/02/15 08:33:01;;;;;;;;;;;19.60;53.80;;;;;;5045824;28;19919;-60
2022/02/15 08:35:26;;;;;;;;;;;19.60;53.80;;;;;;5044427;28;20348;-62
2022/02/15 08:37:52;;;;;;;;;;;19.60;53.70;;;;;;5036456;28;19915;-62
2022/02/15 08:40:18;;;;;;;;;;;19.60;53.60;;;;;;5056474;28;19909;-59
2022/02/15 08:42:43;;;;;;;;;;;19.60;53.50;;;;;;5037900;28;20370;-59
2022/02/15 08:45:09;;;;;;;;;;;19.60;53.40;;;;;;5060330;28;20027;-62
2022/02/15 08:47:35;;;;;;;;;;;19.70;53.30;;;;;;5040803;28;19920;-61
2022/02/15 08:50:00;;;;;;;;;;;19.70;53.30;;;;;;5052139;28;19912;-61
2022/02/15 08:52:30;;;;;;;;;;;19.70;53.90;;;;;;5048170;28;19917;-64
2022/02/15 08:54:55;;;;;;;;;;;19.80;53.20;;;;;;5050399;28;20036;-62
2022/02/15 08:57:21;;;;;;;;;;;19.80;53.20;;;;;;5040577;28;19944;-64
2022/02/15 08:59:46;;;;;;;;;;;19.80;53.30;;;;;;5060774;28;19967;-62
2022/02/15 09:02:11;;;;;;;;;;;19.70;53.40;;;;;;5058623;28;19919;-61
2022/02/15 09:04:37;;;;;;;;;;;19.70;53.60;;;;;;5049200;28;19912;-64
2022/02/15 09:07:03;;;;;;;;;;;19.70;53.60;;;;;;5042378;28;20521;-60
2022/02/15 09:09:28;;;;;;;;;;;19.70;53.70;;;;;;5041603;28;20659;-59
2022/02/15 09:11:54;;;;;;;;;;;19.70;53.80;;;;;;5042259;28;19909;-59
2022/02/15 09:14:19;;;;;;;;;;;19.70;53.60;;;;;;5034903;28;20255;-62
2022/02/15 09:16:45;;;;;;;;;;;19.80;53.70;;;;;;5051310;28;19916;-59
2022/02/15 09:19:13;;;;;;;;;;;19.80;53.70;;;;;;5056688;28;19923;-62
2022/02/15 09:21:39;;;;;;;;;;;19.80;53.80;;;;;;5026002;28;19920;-62
2022/02/15 09:24:05;;;;;;;;;;;19.80;53.80;;;;;;5031663;28;20187;-63
2022/02/15 09:26:30;;;;;;;;;;;19.80;53.80;;;;;;5033232;28;20283;-60
2022/02/15 09:28:56;;;;;;;;;;;19.80;53.80;;;;;;5050680;28;19909;-64
2022/02/15 09:31:22;;;;;;;;;;;19.80;53.80;;;;;;5042388;28;19916;-62
2022/02/15 09:33:52;;;;;;;;;;;19.80;53.70;;;;;;5045078;28;19948;-62
2022/02/15 09:36:23;;;;;;;;;;;19.90;53.80;;;;;;5047093;28;19924;-61
2022/02/15 09:38:48;;;;;;;;;;;19.90;54.00;;;;;;5034968;28;19940;-64
2022/02/15 09:41:14;;;;;;;;;;;19.90;53.80;;;;;;5059723;28;20560;-61
2022/02/15 09:43:40;;;;;;;;;;;19.90;53.80;;;;;;5048082;28;19913;-61
2022/02/15 09:46:06;;;;;;;;;;;20.00;53.80;;;;;;5022284;28;19940;-61
2022/02/15 09:48:32;;;;;;;;;;;19.90;53.70;;;;;;5021169;28;19967;-63
2022/02/15 09:50:59;;;;;;;;;;;20.00;53.70;;;;;;5021570;28;20635;-60
2022/02/15 09:53:24;;;;;;;;;;;20.00;53.60;;;;;;5057808;28;19970;-61
2022/02/15 09:55:50;;;;;;;;;;;20.00;53.60;;;;;;5054131;28;19920;-61
2022/02/15 09:58:15;;;;;;;;;;;20.00;53.50;;;;;;5063580;28;19908;-61
2022/02/15 10:00:43;;;;;;;;;;;20.00;53.50;;;;;;5063952;28;19908;-59
2022/02/15 10:03:09;;;;;;;;;;;20.00;53.50;;;;;;5032543;28;19908;-61
2022/02/15 10:05:34;;;;;;;;;;;20.00;53.40;;;;;;5051730;28;19969;-62
2022/02/15 10:08:00;;;;;;;;;;;20.00;53.40;;;;;;5065046;28;19946;-58
2022/02/15 10:10:32;;;;;;;;;;;20.00;53.40;;;;;;5070709;22;20057;-68
2022/02/15 10:12:59;;;;;;;;;;;20.00;53.30;;;;;;5067448;28;19936;-68
2022/02/15 10:15:28;;;;;;;;;;;20.00;53.30;;;;;;5069371;28;19923;-66
2022/02/15 10:17:53;;;;;;;;;;;20.00;53.20;;;;;;5068785;28;19954;-68
2022/02/15 10:20:25;;;;;;;;;;;20.00;53.10;;;;;;5060378;28;19908;-67
2022/02/15 10:22:50;;;;;;;;;;;20.00;53.00;;;;;;5060271;28;19904;-68
2022/02/15 10:25:16;;;;;;;;;;;20.10;53.00;;;;;;5053490;28;19912;-66
2022/02/15 10:27:44;;;;;;;;;;;20.00;52.80;;;;;;5060783;28;20409;-67
2022/02/15 10:30:10;;;;;;;;;;;20.10;52.80;;;;;;5058540;28;19912;-68
2022/02/15 10:32:35;;;;;;;;;;;20.10;52.60;;;;;;5054501;28;19904;-66
2022/02/15 10:35:01;;;;;;;;;;;20.10;52.50;;;;;;5053502;28;20326;-69
2022/02/15 10:37:32;;;;;;;;;;;20.10;52.30;;;;;;5059169;28;19975;-68
2022/02/15 10:39:59;;;;;;;;;;;20.10;52.10;;;;;;5046390;28;20372;-69
2022/02/15 10:42:25;;;;;;;;;;;20.10;52.30;;;;;;5045735;28;20271;-69
2022/02/15 10:44:54;;;;;;;;;;;20.10;53.10;;;;;;5059087;28;19908;-68
2022/02/15 10:47:20;;;;;;;;;;;20.00;53.30;;;;;;5059291;28;19944;-69
2022/02/15 10:49:45;;;;;;;;;;;20.00;53.10;;;;;;5062973;28;20380;-69
2022/02/15 10:52:11;;;;;;;;;;;20.00;53.10;;;;;;5059771;28;19938;-69
2022/02/15 10:54:40;;;;;;;;;;;20.00;53.10;;;;;;5054726;28;20322;-69
2022/02/15 10:57:05;;;;;;;;;;;20.00;53.10;;;;;;5048452;28;20003;-69
2022/02/15 10:59:32;;;;;;;;;;;20.00;53.00;;;;;;5056760;28;20003;-69
2022/02/15 11:01:58;;;;;;;;;;;20.00;53.10;;;;;;5064924;28;20401;-69
2022/02/15 11:04:24;;;;;;;;;;;20.00;53.00;;;;;;5068441;28;19904;-68
2022/02/15 11:06:49;;;;;;;;;;;20.00;53.00;;;;;;5068807;28;20039;-69
2022/02/15 11:09:15;;;;;;;;;;;20.00;53.00;;;;;;5063086;28;19915;-69
2022/02/15 11:12:03;;;;;;;;;;;20.00;52.90;;;;;;5062133;28;19953;-69
2022/02/15 11:14:29;;;;;;;;;;;20.00;52.90;;;;;;5049651;28;20279;-68
2022/02/15 11:16:54;;;;;;;;;;;20.00;52.90;;;;;;5059340;28;19908;-69
2022/02/15 11:19:20;;;;;;;;;;;20.00;52.90;;;;;;5052921;28;20017;-69
2022/02/15 11:21:52;;;;;;;;;;;20.00;52.90;;;;;;5052705;28;19976;-69
2022/02/15 11:24:17;;;;;;;;;;;20.00;52.80;;;;;;5059731;28;19916;-69
2022/02/15 11:26:43;;;;;;;;;;;20.10;52.80;;;;;;5047481;28;19917;-69
2022/02/15 11:29:21;;;;;;;;;;;20.10;52.70;;;;;;5048299;28;19905;-70
2022/02/15 11:31:46;;;;;;;;;;;20.10;52.60;;;;;;5062697;28;19959;-69
2022/02/15 11:34:12;;;;;;;;;;;20.10;52.60;;;;;;5063974;28;19904;-67
2022/02/15 11:37:04;;;;;;;;;;;20.20;52.50;;;;;;5047151;28;19912;-69
2022/02/15 11:39:31;;;;;;;;;;;20.20;52.50;;;;;;5046428;28;19932;-69
2022/02/15 11:41:57;;;;;;;;;;;20.20;52.40;;;;;;5063461;28;19979;-69
2022/02/15 11:44:29;;;;;;;;;;;20.20;52.30;;;;;;5067595;28;19904;-68
2022/02/15 11:46:55;;;;;;;;;;;20.20;52.30;;;;;;5049032;28;19908;-69
2022/02/15 11:49:23;;;;;;;;;;;20.20;52.20;;;;;;5057511;28;20258;-69
2022/02/15 11:51:52;;;;;;;;;;;20.20;52.20;;;;;;5058798;28;19904;-67
2022/02/15 11:54:19;;;;;;;;;;;20.20;52.10;;;;;;5048968;28;20422;-68
2022/02/15 11:56:49;;;;;;;;;;;20.20;52.10;;;;;;5047898;28;19966;-68
2022/02/15 11:59:18;;;;;;;;;;;20.20;52.10;;;;;;5054872;28;19920;-68
2022/02/15 12:01:53;;;;;;;;;;;20.20;52.00;;;;;;5047159;28;19913;-69
2022/02/15 12:04:18;;;;;;;;;;;20.20;52.00;;;;;;5049912;28;19926;-69
2022/02/15 12:06:47;;;;;;;;;;;20.20;52.00;;;;;;5050885;28;19905;-69
2022/02/15 12:09:13;;;;;;;;;;;20.20;52.00;;;;;;5051580;28;20431;-69
2022/02/15 12:11:39;;;;;;;;;;;20.30;52.10;;;;;;5061379;28;20024;-69
2022/02/15 12:14:15;;;;;;;;;;;20.20;52.60;;;;;;5048438;28;19904;-69
2022/02/15 12:16:41;;;;;;;;;;;20.20;52.00;;;;;;5060035;28;19912;-68
2022/02/15 12:19:07;;;;;;;;;;;20.20;52.00;;;;;;5059422;28;19916;-68
2022/02/15 12:21:39;;;;;;;;;;;20.20;52.10;;;;;;5046713;28;19958;-68
2022/02/15 12:24:05;;;;;;;;;;;20.20;52.10;;;;;;5048170;28;19912;-68
2022/02/15 12:26:31;;;;;;;;;;;20.20;52.10;;;;;;5059227;28;19913;-68
2022/02/15 12:28:56;;;;;;;;;;;20.20;52.10;;;;;;5061847;28;19930;-69
2022/02/15 12:31:25;;;;;;;;;;;20.20;52.20;;;;;;5048661;28;19982;-69
2022/02/15 12:33:50;;;;;;;;;;;20.20;52.10;;;;;;5056737;28;19908;-68
2022/02/15 12:36:16;;;;;;;;;;;20.20;52.20;;;;;;5054583;28;19916;-68
2022/02/15 12:38:41;;;;;;;;;;;20.20;52.20;;;;;;5060139;28;19905;-68
2022/02/15 12:41:13;;;;;;;;;;;20.20;52.30;;;;;;5046988;28;19909;-68
2022/02/15 12:43:39;;;;;;;;;;;20.20;52.30;;;;;;5059625;28;19900;-68
2022/02/15 12:46:04;;;;;;;;;;;20.10;52.20;;;;;;5067440;28;19928;-68
2022/02/15 12:48:30;;;;;;;;;;;20.10;52.30;;;;;;5067299;28;19915;-68
2022/02/15 12:50:56;;;;;;;;;;;20.10;52.30;;;;;;5062146;28;20383;-69
2022/02/15 12:53:21;;;;;;;;;;;20.10;52.30;;;;;;5054462;28;19920;-68
2022/02/15 12:55:50;;;;;;;;;;;20.10;52.40;;;;;;5051846;28;19908;-69
2022/02/15 12:58:16;;;;;;;;;;;20.10;52.40;;;;;;5048189;28;19912;-69
2022/02/15 13:00:41;;;;;;;;;;;20.10;52.40;;;;;;5058409;28;19905;-69
2022/02/15 13:03:09;;;;;;;;;;;20.10;52.40;;;;;;5067895;28;19908;-68
2022/02/15 13:05:35;;;;;;;;;;;20.10;52.40;;;;;;5063781;28;19999;-69
2022/02/15 13:08:00;;;;;;;;;;;20.10;52.40;;;;;;5060524;28;20386;-69
2022/02/15 13:10:28;;;;;;;;;;;20.10;52.40;;;;;;5055984;28;19913;-69
2022/02/15 13:13:10;;;;;;;;;;;20.10;52.40;;;;;;5047742;28;19904;-69
2022/02/15 13:15:35;;;;;;;;;;;20.10;52.40;;;;;;5048845;28;20284;-69
2022/02/15 13:18:04;;;;;;;;;;;20.10;52.40;;;;;;5064264;28;19905;-67
2022/02/15 13:20:31;;;;;;;;;;;20.10;52.50;;;;;;5056386;28;19962;-69
2022/02/15 13:23:00;;;;;;;;;;;20.10;52.50;;;;;;5055038;28;19911;-69
2022/02/15 13:25:36;;;;;;;;;;;20.10;52.50;;;;;;5071606;28;19917;-69
2022/02/15 13:28:01;;;;;;;;;;;20.10;52.50;;;;;;5054707;28;19905;-68
2022/02/15 13:30:27;;;;;;;;;;;20.10;52.60;;;;;;5063685;28;19919;-69
2022/02/15 13:33:03;;;;;;;;;;;20.10;52.50;;;;;;5051342;28;19929;-69
2022/02/15 13:35:28;;;;;;;;;;;20.10;52.60;;;;;;5064964;28;19904;-69
2022/02/15 13:37:56;;;;;;;;;;;20.10;52.60;;;;;;5059212;28;19905;-69
2022/02/15 13:40:22;;;;;;;;;;;20.10;52.60;;;;;;5057134;28;19904;-69
2022/02/15 13:42:47;;;;;;;;;;;20.10;52.60;;;;;;5058424;28;20159;-68
2022/02/15 13:45:13;;;;;;;;;;;20.10;52.70;;;;;;5052817;28;20160;-69
2022/02/15 13:47:39;;;;;;;;;;;20.10;52.70;;;;;;5052686;28;19905;-69
2022/02/15 13:50:05;;;;;;;;;;;20.10;52.70;;;;;;5051257;28;19919;-67
2022/02/15 13:52:35;;;;;;;;;;;20.10;52.70;;;;;;5060214;28;19904;-69
2022/02/15 13:55:00;;;;;;;;;;;20.10;52.70;;;;;;5050545;28;20279;-69
2022/02/15 13:57:26;;;;;;;;;;;20.10;52.70;;;;;;5050562;28;19909;-69
2022/02/15 13:59:51;;;;;;;;;;;20.10;52.70;;;;;;5054717;28;20109;-68
2022/02/15 14:02:17;;;;;;;;;;;20.10;52.70;;;;;;5050531;28;19905;-70
2022/02/15 14:04:42;;;;;;;;;;;20.10;53.30;;;;;;5053113;28;19909;-69
2022/02/15 14:07:07;;;;;;;;;;;20.10;52.80;;;;;;5062217;28;20399;-68
2022/02/15 14:09:34;;;;;;;;;;;20.10;52.80;;;;;;5049771;28;19908;-68
2022/02/15 14:11:59;;;;;;;;;;;20.10;52.80;;;;;;5050693;28;19904;-69
2022/02/15 14:14:24;;;;;;;;;;;20.10;52.80;;;;;;5054472;28;20385;-67